Terminal Aerodrome Forecast
Issued by NWS

Home | Current Version | Previous Version | Text Only | Print | Product List | Glossary Off
Versions: 1 2 3 4 5 6 7 8 9 10 11 12 13 14 15 16 17 18

000
FTUS42 KTBW 272300
TAFRSW
TAF
KRSW 272333Z 2800/2824 25006KT P6SM SCT035
     FM280200 VRB03KT P6SM SCT250
     FM281300 26010KT P6SM VCSH SCT035 SCT250
     FM282100 26009KT P6SM SCT250=

USA.gov is the U.S. government's official web portal to all federal, state and local government web resources and services.